createdAt,value
2023-01-29T00:01:42.960Z,100.00
2023-01-29T00:04:10.669Z,100.00
2023-01-29T00:06:40.021Z,100.00
2023-01-29T00:09:07.507Z,100.00
2023-01-29T00:11:36.040Z,100.00
2023-01-29T00:14:03.567Z,100.00
2023-01-29T00:16:31.084Z,100.00
2023-01-29T00:18:58.671Z,100.00
2023-01-29T00:21:26.201Z,100.00
2023-01-29T00:23:56.128Z,100.00
2023-01-29T00:26:23.842Z,100.00
2023-01-29T00:28:51.333Z,100.00
2023-01-29T00:31:20.798Z,100.00
2023-01-29T00:33:48.927Z,100.00
2023-01-29T00:36:17.835Z,100.00
2023-01-29T00:38:46.394Z,100.00
2023-01-29T00:41:34.463Z,100.00
2023-01-29T00:44:28.680Z,100.00
2023-01-29T00:46:56.288Z,100.00
2023-01-29T00:49:24.216Z,100.00
2023-01-29T00:52:05.653Z,100.00
2023-01-29T00:54:33.355Z,100.00
2023-01-29T00:57:02.245Z,100.00
2023-01-29T00:59:29.979Z,100.00
2023-01-29T01:02:11.601Z,97.17
2023-01-29T01:04:39.107Z,95.53
2023-01-29T01:07:07.517Z,100.00
2023-01-29T01:09:53.676Z,100.00
2023-01-29T01:12:23.182Z,100.00
2023-01-29T01:14:50.959Z,100.00
2023-01-29T01:17:18.700Z,100.00
2023-01-29T01:19:46.196Z,100.00
2023-01-29T01:22:13.639Z,100.00
2023-01-29T01:24:41.174Z,99.46
2023-01-29T01:27:08.887Z,97.71
2023-01-29T01:29:37.895Z,97.00
2023-01-29T01:32:06.172Z,99.28
2023-01-29T01:34:33.752Z,100.00
2023-01-29T01:37:01.306Z,100.00
2023-01-29T01:39:28.838Z,98.67
2023-01-29T01:41:56.439Z,99.05
2023-01-29T01:45:04.261Z,100.00
2023-01-29T01:47:36.424Z,100.00
2023-01-29T01:50:08.800Z,95.89
2023-01-29T01:52:39.183Z,92.55
2023-01-29T01:55:07.949Z,89.28
2023-01-29T01:57:35.957Z,88.08
2023-01-29T02:00:11.581Z,87.41
2023-01-29T02:02:59.212Z,87.19
2023-01-29T02:05:45.757Z,85.75
2023-01-29T02:08:31.436Z,89.74
2023-01-29T02:10:59.224Z,96.43
2023-01-29T02:13:27.593Z,100.00
2023-01-29T02:15:56.370Z,100.00
2023-01-29T02:18:23.871Z,100.00
2023-01-29T02:21:08.455Z,100.00
2023-01-29T02:24:12.395Z,100.00
2023-01-29T02:26:56.459Z,100.00
2023-01-29T02:29:34.534Z,100.00
2023-01-29T02:32:17.260Z,100.00
2023-01-29T02:35:10.957Z,100.00
2023-01-29T02:37:46.507Z,100.00
2023-01-29T02:40:25.996Z,100.00
2023-01-29T02:43:03.163Z,100.00
2023-01-29T02:45:34.960Z,100.00
2023-01-29T02:48:04.193Z,100.00
2023-01-29T02:50:38.441Z,100.00
2023-01-29T02:53:10.353Z,100.00
2023-01-29T02:55:43.367Z,100.00
2023-01-29T02:58:14.366Z,100.00
2023-01-29T03:00:47.654Z,100.00
2023-01-29T03:03:19.255Z,100.00
2023-01-29T03:05:54.966Z,100.00
2023-01-29T03:08:36.948Z,100.00
2023-01-29T03:11:07.512Z,100.00
2023-01-29T03:13:41.815Z,100.00
2023-01-29T03:16:19.404Z,100.00
2023-01-29T03:18:53.578Z,100.00
2023-01-29T03:21:43.333Z,100.00
2023-01-29T03:24:31.680Z,100.00
2023-01-29T03:27:21.479Z,100.00
2023-01-29T03:30:08.897Z,100.00
2023-01-29T03:32:39.288Z,100.00
2023-01-29T03:35:11.873Z,100.00
2023-01-29T03:37:45.497Z,100.00
2023-01-29T03:40:14.817Z,100.00
2023-01-29T03:42:56.904Z,100.00
2023-01-29T03:45:33.716Z,100.00
2023-01-29T03:48:10.399Z,100.00
2023-01-29T03:50:42.914Z,100.00
2023-01-29T03:53:18.017Z,100.00
2023-01-29T03:55:55.253Z,100.00
2023-01-29T03:58:30.542Z,100.00
2023-01-29T04:01:03.651Z,100.00
2023-01-29T04:03:35.978Z,100.00
2023-01-29T04:06:10.688Z,100.00
2023-01-29T04:08:46.370Z,100.00
2023-01-29T04:11:17.410Z,100.00
2023-01-29T04:13:44.897Z,100.00
2023-01-29T04:16:18.830Z,100.00
2023-01-29T04:18:49.164Z,100.00
2023-01-29T04:21:17.509Z,100.00
2023-01-29T04:23:45.082Z,100.00
2023-01-29T04:26:26.526Z,100.00
2023-01-29T04:29:04.692Z,100.00
2023-01-29T04:31:39.763Z,100.00
2023-01-29T04:34:19.173Z,100.00
2023-01-29T04:36:54.009Z,100.00
2023-01-29T04:39:27.008Z,100.00
2023-01-29T04:42:00.802Z,100.00
2023-01-29T04:44:36.417Z,100.00
2023-01-29T04:47:12.636Z,100.00
2023-01-29T04:49:46.720Z,100.00
2023-01-29T04:52:21.844Z,100.00
2023-01-29T04:54:58.677Z,100.00
2023-01-29T04:57:31.132Z,100.00
2023-01-29T05:00:03.819Z,100.00
2023-01-29T05:02:35.381Z,100.00
2023-01-29T05:05:06.905Z,100.00
2023-01-29T05:07:37.641Z,100.00
2023-01-29T05:10:06.563Z,100.00
2023-01-29T05:12:35.376Z,100.00
2023-01-29T05:15:07.625Z,100.00
2023-01-29T05:17:35.141Z,100.00
2023-01-29T05:20:04.422Z,100.00
2023-01-29T05:22:32.135Z,100.00
2023-01-29T05:24:59.663Z,100.00
2023-01-29T05:27:50.850Z,100.00
2023-01-29T05:30:18.746Z,100.00
2023-01-29T05:32:46.452Z,100.00
2023-01-29T05:35:15.370Z,100.00
2023-01-29T05:37:42.865Z,100.00
2023-01-29T05:40:11.188Z,100.00
2023-01-29T05:42:38.664Z,100.00
2023-01-29T05:45:07.236Z,100.00
2023-01-29T05:47:34.746Z,100.00
2023-01-29T05:50:02.261Z,100.00
2023-01-29T05:52:31.053Z,100.00
2023-01-29T05:54:58.516Z,100.00
2023-01-29T05:57:25.989Z,100.00
2023-01-29T05:59:53.432Z,100.00
2023-01-29T06:02:21.217Z,100.00
2023-01-29T06:04:48.676Z,100.00
2023-01-29T06:07:16.164Z,100.00
2023-01-29T06:09:44.985Z,100.00
2023-01-29T06:12:12.917Z,100.00
2023-01-29T06:14:40.386Z,100.00
2023-01-29T06:17:07.876Z,98.96
2023-01-29T06:19:35.331Z,100.00
2023-01-29T06:22:02.788Z,100.00
2023-01-29T06:24:30.516Z,100.00
2023-01-29T06:26:59.362Z,100.00
2023-01-29T06:29:26.814Z,100.00
2023-01-29T06:31:54.418Z,100.00
2023-01-29T06:34:21.953Z,100.00
2023-01-29T06:36:49.426Z,100.00
2023-01-29T06:39:16.960Z,100.00
2023-01-29T06:41:45.321Z,100.00
2023-01-29T06:44:14.207Z,100.00
2023-01-29T06:46:41.807Z,100.00
2023-01-29T06:49:09.239Z,100.00
2023-01-29T06:51:36.730Z,100.00
2023-01-29T06:54:06.324Z,100.00
2023-01-29T06:56:33.792Z,100.00
2023-01-29T06:59:01.302Z,100.00
2023-01-29T07:01:36.077Z,100.00
2023-01-29T07:04:04.509Z,100.00
2023-01-29T07:06:32.333Z,100.00
2023-01-29T07:08:59.925Z,100.00
2023-01-29T07:11:27.399Z,100.00
2023-01-29T07:13:54.850Z,100.00
2023-01-29T07:16:23.298Z,100.00
2023-01-29T07:18:52.127Z,100.00
2023-01-29T07:21:19.578Z,100.00
2023-01-29T07:23:47.056Z,100.00
2023-01-29T07:26:14.526Z,100.00
2023-01-29T07:28:42.459Z,100.00
2023-01-29T07:31:14.285Z,100.00
2023-01-29T07:33:43.451Z,100.00
2023-01-29T07:36:12.998Z,100.00
2023-01-29T07:38:40.479Z,100.00
2023-01-29T07:41:08.110Z,100.00
2023-01-29T07:43:35.822Z,100.00
2023-01-29T07:46:04.760Z,100.00
2023-01-29T07:48:32.298Z,100.00
2023-01-29T07:50:59.972Z,100.00
2023-01-29T07:53:29.432Z,100.00
2023-01-29T07:55:57.267Z,100.00
2023-01-29T07:58:24.856Z,100.00
2023-01-29T08:00:52.454Z,100.00
2023-01-29T08:03:21.152Z,100.00
2023-01-29T08:05:49.046Z,100.00
2023-01-29T08:08:16.555Z,100.00
2023-01-29T08:10:45.374Z,100.00
2023-01-29T08:13:12.888Z,100.00
2023-01-29T08:15:43.578Z,100.00
2023-01-29T08:18:11.030Z,100.00
2023-01-29T08:20:38.516Z,100.00
2023-01-29T08:23:07.302Z,100.00
2023-01-29T08:25:36.727Z,100.00
2023-01-29T08:28:05.718Z,100.00
2023-01-29T08:30:34.882Z,100.00
2023-01-29T08:33:03.900Z,100.00
2023-01-29T08:35:31.504Z,100.00
2023-01-29T08:38:00.575Z,100.00
2023-01-29T08:40:29.294Z,100.00
2023-01-29T08:43:01.988Z,100.00
2023-01-29T08:45:32.121Z,100.00
2023-01-29T08:47:59.567Z,100.00
2023-01-29T08:50:27.290Z,100.00
2023-01-29T08:52:58.528Z,100.00
2023-01-29T08:55:26.073Z,100.00
2023-01-29T08:57:53.554Z,100.00
2023-01-29T09:00:21.884Z,100.00
2023-01-29T09:02:50.636Z,100.00
2023-01-29T09:05:18.738Z,100.00
2023-01-29T09:07:46.447Z,100.00
2023-01-29T09:10:13.914Z,100.00
2023-01-29T09:12:41.371Z,100.00
2023-01-29T09:15:10.029Z,100.00
2023-01-29T09:17:37.509Z,100.00
2023-01-29T09:20:07.447Z,100.00
2023-01-29T09:22:35.418Z,100.00
2023-01-29T09:25:03.485Z,100.00
2023-01-29T09:27:30.996Z,100.00
2023-01-29T09:29:58.425Z,100.00
2023-01-29T09:32:52.030Z,100.00
2023-01-29T09:35:15.077Z,100.00
2023-01-29T09:37:42.825Z,100.00
2023-01-29T09:40:22.522Z,100.00
2023-01-29T09:42:52.973Z,100.00
2023-01-29T09:45:24.933Z,100.00
2023-01-29T09:47:53.425Z,100.00
2023-01-29T09:50:27.335Z,93.94
2023-01-29T09:52:58.003Z,86.59
2023-01-29T09:55:28.384Z,78.66
2023-01-29T09:57:59.115Z,78.59
2023-01-29T10:00:32.440Z,81.86
2023-01-29T10:03:16.527Z,84.14
2023-01-29T10:05:59.391Z,84.94
2023-01-29T10:09:02.829Z,86.63
2023-01-29T10:11:43.884Z,87.18
2023-01-29T10:14:19.736Z,87.34
2023-01-29T10:17:03.145Z,90.52
2023-01-29T10:19:58.185Z,99.43
2023-01-29T10:22:46.770Z,100.00
2023-01-29T10:25:17.010Z,100.00
2023-01-29T10:27:50.965Z,100.00
2023-01-29T10:30:27.021Z,100.00
2023-01-29T10:32:56.378Z,100.00
2023-01-29T10:35:26.163Z,100.00
2023-01-29T10:37:55.844Z,96.49
2023-01-29T10:40:25.071Z,100.00
2023-01-29T10:43:00.707Z,100.00
2023-01-29T10:45:37.846Z,92.45
2023-01-29T10:48:21.887Z,96.25
2023-01-29T10:50:54.649Z,98.61
2023-01-29T10:53:48.163Z,96.00
2023-01-29T10:56:29.751Z,100.00
2023-01-29T10:59:02.116Z,100.00
2023-01-29T11:01:29.601Z,96.20
2023-01-29T11:04:00.318Z,93.80
2023-01-29T11:06:31.555Z,86.51
2023-01-29T11:09:07.999Z,88.43
2023-01-29T11:11:39.854Z,85.94
2023-01-29T11:14:13.023Z,83.13
2023-01-29T11:16:45.585Z,87.79
2023-01-29T11:19:14.084Z,94.14
2023-01-29T11:21:53.570Z,92.67
2023-01-29T11:24:22.368Z,86.37
2023-01-29T11:26:52.525Z,86.97
2023-01-29T11:29:39.981Z,91.42
2023-01-29T11:32:12.460Z,98.97
2023-01-29T11:34:58.662Z,96.01
2023-01-29T11:37:33.950Z,85.32
2023-01-29T11:40:02.919Z,83.29
2023-01-29T11:42:33.721Z,87.14
2023-01-29T11:45:01.305Z,87.92
2023-01-29T11:47:31.430Z,80.79
2023-01-29T11:50:02.325Z,74.12
2023-01-29T11:52:40.731Z,74.55
2023-01-29T11:55:18.608Z,74.23
2023-01-29T11:57:51.628Z,74.18
2023-01-29T12:00:23.538Z,78.00
2023-01-29T12:02:55.391Z,75.75
2023-01-29T12:05:25.348Z,73.71
2023-01-29T12:07:56.423Z,79.87
2023-01-29T12:10:34.269Z,79.43
2023-01-29T12:13:19.922Z,72.57
2023-01-29T12:15:49.447Z,73.09
2023-01-29T12:18:26.847Z,74.92
2023-01-29T12:20:58.558Z,72.17
2023-01-29T12:23:36.215Z,70.02
2023-01-29T12:26:10.541Z,70.79
2023-01-29T12:28:49.373Z,66.29
2023-01-29T12:31:25.109Z,66.21
2023-01-29T12:33:57.568Z,78.92
2023-01-29T12:36:29.235Z,87.72
2023-01-29T12:38:56.725Z,88.47
2023-01-29T12:41:34.998Z,86.64
2023-01-29T12:44:07.067Z,82.31
2023-01-29T12:46:39.865Z,82.86
2023-01-29T12:49:16.266Z,80.52
2023-01-29T12:51:54.233Z,75.79
2023-01-29T12:54:27.443Z,76.93
2023-01-29T12:57:00.932Z,71.10
2023-01-29T12:59:32.494Z,76.60
2023-01-29T13:02:10.863Z,81.57
2023-01-29T13:04:43.179Z,88.46
2023-01-29T13:07:15.852Z,88.08
2023-01-29T13:09:46.636Z,87.08
2023-01-29T13:12:18.534Z,88.96
2023-01-29T13:14:50.713Z,90.81
2023-01-29T13:17:24.584Z,93.79
2023-01-29T13:19:55.241Z,90.54
2023-01-29T13:22:26.551Z,83.55
2023-01-29T13:25:04.168Z,80.53
2023-01-29T13:27:36.130Z,81.18
2023-01-29T13:30:04.570Z,83.36
2023-01-29T13:32:33.718Z,87.31
2023-01-29T13:35:05.046Z,86.81
2023-01-29T13:37:34.995Z,85.56
2023-01-29T13:40:05.007Z,81.20
2023-01-29T13:42:43.523Z,77.74
2023-01-29T13:45:21.294Z,76.69
2023-01-29T13:47:52.000Z,77.86
2023-01-29T13:50:25.419Z,78.38
2023-01-29T13:52:58.644Z,80.28
2023-01-29T13:55:31.288Z,82.51
2023-01-29T13:58:01.597Z,86.66
2023-01-29T14:00:56.236Z,81.15
2023-01-29T14:04:04.663Z,82.62
2023-01-29T14:06:48.557Z,86.21
2023-01-29T14:09:51.061Z,85.33
2023-01-29T14:12:37.328Z,84.08
2023-01-29T14:15:23.311Z,84.60
2023-01-29T14:18:01.383Z,87.98
2023-01-29T14:20:45.158Z,87.88
2023-01-29T14:23:25.000Z,91.75
2023-01-29T14:25:52.697Z,94.95
2023-01-29T14:28:24.885Z,95.42
2023-01-29T14:30:55.013Z,95.11
2023-01-29T14:33:28.330Z,95.46
2023-01-29T14:35:57.838Z,92.61
2023-01-29T14:38:28.905Z,89.50
2023-01-29T14:41:15.757Z,89.48
2023-01-29T14:43:43.287Z,87.63
2023-01-29T14:46:46.321Z,84.78
2023-01-29T14:49:13.776Z,85.05
2023-01-29T14:51:46.509Z,85.44
2023-01-29T14:54:21.944Z,87.50
2023-01-29T14:56:59.376Z,92.09
2023-01-29T14:59:33.970Z,90.92
2023-01-29T15:02:11.466Z,92.13
2023-01-29T15:04:44.927Z,93.21
2023-01-29T15:07:21.919Z,94.11
2023-01-29T15:09:57.280Z,93.13
2023-01-29T15:12:33.537Z,93.19
2023-01-29T15:15:07.958Z,91.95
2023-01-29T15:17:41.488Z,92.73
2023-01-29T15:20:29.873Z,95.21
2023-01-29T15:22:57.839Z,94.02
2023-01-29T15:25:26.019Z,94.67
2023-01-29T15:27:55.782Z,95.99
2023-01-29T15:30:33.187Z,96.83
2023-01-29T15:33:03.991Z,98.36
2023-01-29T15:35:36.040Z,94.35
2023-01-29T15:38:06.551Z,96.47
2023-01-29T15:40:35.283Z,93.56
2023-01-29T15:43:02.796Z,100.00
2023-01-29T15:45:32.103Z,100.00
2023-01-29T15:48:06.491Z,100.00
2023-01-29T15:50:37.509Z,100.00
2023-01-29T15:53:10.266Z,100.00
2023-01-29T15:55:37.863Z,97.86
2023-01-29T15:58:05.652Z,99.66
2023-01-29T16:00:33.276Z,99.65
2023-01-29T16:03:14.047Z,100.00
2023-01-29T16:05:42.007Z,99.49
2023-01-29T16:08:14.570Z,99.56
2023-01-29T16:10:43.251Z,95.23
2023-01-29T16:13:19.894Z,94.73
2023-01-29T16:15:56.783Z,90.79
2023-01-29T16:18:29.713Z,89.11
2023-01-29T16:20:59.873Z,87.24
2023-01-29T16:23:30.489Z,87.09
2023-01-29T16:26:03.204Z,87.90
2023-01-29T16:28:31.321Z,87.89
2023-01-29T16:31:02.872Z,87.63
2023-01-29T16:33:36.231Z,86.46
2023-01-29T16:36:05.739Z,86.26
2023-01-29T16:38:36.595Z,86.54
2023-01-29T16:41:16.326Z,87.96
2023-01-29T16:43:54.085Z,89.20
2023-01-29T16:46:26.279Z,90.04
2023-01-29T16:48:55.391Z,90.32
2023-01-29T16:51:26.149Z,91.20
2023-01-29T16:53:56.778Z,87.92
2023-01-29T16:56:25.503Z,90.08
2023-01-29T16:58:55.285Z,90.69
2023-01-29T17:01:25.365Z,89.72
2023-01-29T17:04:05.716Z,88.34
2023-01-29T17:06:33.695Z,87.64
2023-01-29T17:09:01.819Z,87.26
2023-01-29T17:11:34.559Z,88.39
2023-01-29T17:14:02.244Z,89.30
2023-01-29T17:16:32.385Z,90.76
2023-01-29T17:19:02.016Z,91.59
2023-01-29T17:21:30.607Z,95.71
2023-01-29T17:23:58.087Z,98.75
2023-01-29T17:26:25.781Z,96.04
2023-01-29T17:28:54.670Z,92.80
2023-01-29T17:31:22.267Z,91.55
2023-01-29T17:33:49.853Z,90.59
2023-01-29T17:36:19.191Z,88.30
2023-01-29T17:38:47.835Z,89.11
2023-01-29T17:41:20.759Z,89.71
2023-01-29T17:43:48.543Z,88.78
2023-01-29T17:46:18.273Z,89.28
2023-01-29T17:48:46.392Z,91.23
2023-01-29T17:51:16.106Z,92.12
2023-01-29T17:53:46.954Z,93.22
2023-01-29T17:56:17.241Z,94.25
2023-01-29T17:58:45.172Z,100.00
2023-01-29T18:01:12.628Z,98.38
2023-01-29T18:03:40.102Z,100.00
2023-01-29T18:06:08.871Z,100.00
2023-01-29T18:08:38.942Z,100.00
2023-01-29T18:11:07.750Z,100.00
2023-01-29T18:13:36.407Z,100.00
2023-01-29T18:16:04.002Z,100.00
2023-01-29T18:18:31.514Z,100.00
2023-01-29T18:20:58.961Z,100.00
2023-01-29T18:23:26.429Z,100.00
2023-01-29T18:25:57.475Z,100.00
2023-01-29T18:28:26.599Z,100.00
2023-01-29T18:30:54.240Z,100.00
2023-01-29T18:33:24.025Z,100.00
2023-01-29T18:35:51.490Z,100.00
2023-01-29T18:38:18.979Z,100.00
2023-01-29T18:40:46.450Z,100.00
2023-01-29T18:43:14.939Z,100.00
2023-01-29T18:45:44.200Z,100.00
2023-01-29T18:48:11.696Z,100.00
2023-01-29T18:50:39.180Z,100.00
2023-01-29T18:53:07.618Z,100.00
2023-01-29T18:55:37.415Z,100.00
2023-01-29T18:58:28.203Z,100.00
2023-01-29T19:00:53.754Z,100.00
2023-01-29T19:03:21.553Z,100.00
2023-01-29T19:05:49.013Z,100.00
2023-01-29T19:08:16.518Z,100.00
2023-01-29T19:10:43.989Z,100.00
2023-01-29T19:13:11.447Z,100.00
2023-01-29T19:15:42.964Z,100.00
2023-01-29T19:18:14.712Z,100.00
2023-01-29T19:20:42.776Z,99.18
2023-01-29T19:23:10.458Z,97.81
2023-01-29T19:25:38.757Z,96.78
2023-01-29T19:28:07.573Z,97.76
2023-01-29T19:30:35.106Z,99.68
2023-01-29T19:33:03.004Z,98.14
2023-01-29T19:35:32.592Z,95.86
2023-01-29T19:38:00.396Z,93.98
2023-01-29T19:40:28.029Z,93.52
2023-01-29T19:42:56.429Z,91.76
2023-01-29T19:45:49.145Z,90.35
2023-01-29T19:48:14.397Z,90.10
2023-01-29T19:50:43.343Z,89.52
2023-01-29T19:53:10.824Z,89.57
2023-01-29T19:55:38.314Z,90.17
2023-01-29T19:58:05.810Z,89.46
2023-01-29T20:00:33.315Z,88.68
2023-01-29T20:03:00.820Z,88.73
2023-01-29T20:05:28.394Z,90.34
2023-01-29T20:07:57.288Z,90.87
2023-01-29T20:10:24.780Z,95.40
2023-01-29T20:12:52.313Z,97.37
2023-01-29T20:15:19.800Z,99.41
2023-01-29T20:17:47.269Z,100.00
2023-01-29T20:20:16.249Z,100.00
2023-01-29T20:22:44.557Z,100.00
2023-01-29T20:25:14.421Z,100.00
2023-01-29T20:27:42.095Z,100.00
2023-01-29T20:30:11.023Z,100.00
2023-01-29T20:32:38.505Z,100.00
2023-01-29T20:35:06.856Z,100.00
2023-01-29T20:37:34.322Z,100.00
2023-01-29T20:40:01.873Z,100.00
2023-01-29T20:42:30.737Z,100.00
2023-01-29T20:44:58.193Z,100.00
2023-01-29T20:47:25.733Z,100.00
2023-01-29T20:49:53.204Z,100.00
2023-01-29T20:52:20.674Z,100.00
2023-01-29T20:54:48.293Z,100.00
2023-01-29T20:57:16.096Z,100.00
2023-01-29T20:59:45.095Z,100.00
2023-01-29T21:02:12.598Z,100.00
2023-01-29T21:04:40.072Z,100.00
2023-01-29T21:07:07.523Z,100.00
2023-01-29T21:09:35.061Z,100.00
2023-01-29T21:12:05.215Z,100.00
2023-01-29T21:14:32.875Z,100.00
2023-01-29T21:17:02.187Z,100.00
2023-01-29T21:19:30.793Z,100.00
2023-01-29T21:21:58.816Z,100.00
2023-01-29T21:24:26.875Z,100.00
2023-01-29T21:26:54.549Z,100.00
2023-01-29T21:29:22.047Z,100.00
2023-01-29T21:31:49.633Z,100.00
2023-01-29T21:34:18.513Z,100.00
2023-01-29T21:36:46.733Z,100.00
2023-01-29T21:39:20.983Z,100.00
2023-01-29T21:42:08.252Z,100.00
2023-01-29T21:44:36.391Z,100.00
2023-01-29T21:47:12.107Z,100.00
2023-01-29T21:49:45.030Z,100.00
2023-01-29T21:52:13.898Z,100.00
2023-01-29T21:54:41.834Z,100.00
2023-01-29T21:57:14.787Z,100.00
2023-01-29T21:59:42.718Z,100.00
2023-01-29T22:02:14.463Z,100.00
2023-01-29T22:04:42.196Z,100.00
2023-01-29T22:07:11.882Z,100.00
2023-01-29T22:09:39.720Z,100.00
2023-01-29T22:12:08.624Z,100.00
2023-01-29T22:14:36.117Z,100.00
2023-01-29T22:17:03.878Z,100.00
2023-01-29T22:19:31.370Z,100.00
2023-01-29T22:21:58.819Z,100.00
2023-01-29T22:24:27.875Z,100.00
2023-01-29T22:26:55.360Z,100.00
2023-01-29T22:29:23.029Z,100.00
2023-01-29T22:31:50.494Z,100.00
2023-01-29T22:34:17.962Z,100.00
2023-01-29T22:36:45.426Z,100.00
2023-01-29T22:39:13.402Z,100.00
2023-01-29T22:41:42.216Z,100.00
2023-01-29T22:44:09.850Z,100.00
2023-01-29T22:46:37.328Z,100.00
2023-01-29T22:49:04.900Z,100.00
2023-01-29T22:51:32.440Z,100.00
2023-01-29T22:54:01.079Z,100.00
2023-01-29T22:56:29.667Z,100.00
2023-01-29T22:59:00.016Z,100.00
2023-01-29T23:01:29.332Z,100.00
2023-01-29T23:03:57.056Z,100.00
2023-01-29T23:06:25.235Z,100.00
2023-01-29T23:08:52.991Z,100.00
2023-01-29T23:11:23.448Z,100.00
2023-01-29T23:13:52.687Z,100.00
2023-01-29T23:16:29.171Z,100.00
2023-01-29T23:18:57.500Z,100.00
2023-01-29T23:21:27.108Z,100.00
2023-01-29T23:23:55.272Z,100.00
2023-01-29T23:26:40.803Z,100.00
2023-01-29T23:29:08.329Z,100.00
2023-01-29T23:31:37.167Z,100.00
2023-01-29T23:34:04.770Z,100.00
2023-01-29T23:36:32.237Z,100.00
2023-01-29T23:38:59.689Z,100.00
2023-01-29T23:41:27.149Z,100.00
2023-01-29T23:43:54.643Z,100.00
2023-01-29T23:46:22.154Z,100.00
2023-01-29T23:48:50.973Z,100.00
2023-01-29T23:51:18.447Z,100.00
2023-01-29T23:53:45.910Z,100.00
2023-01-29T23:56:13.523Z,100.00
2023-01-29T23:58:41.041Z,100.00
